This is the latest recevied weather packets stored in our database for station/object YBBN. If no packets are shown the sender has not sent any weather packets the latest 10 day(s).
| Time | Temp. | Humidity | Pressure | Rain* | Wind** | Luminosity | Snow |
|---|---|---|---|---|---|---|---|
| 1787777647 | 12.78° C | 82% | 1024 hPa | - | - | - | - |
| 1787777031 | 12.78° C | 82% | 1024 hPa | - | - | - | - |
| 1787776427 | 12.78° C | 87% | 1023 hPa | - | - | - | - |
| 1787775826 | 12.78° C | 87% | 1023 hPa | - | - | - | - |
| 1787775230 | 12.78° C | 87% | 1023 hPa | - | - | - | - |
| 1787774628 | 15° C | 77% | 1023 hPa | - | - | - | - |
| 1787774030 | 15° C | 77% | 1023 hPa | - | - | - | - |
| 1787773427 | 15° C | 77% | 1023 hPa | - | - | - | - |
| 1787772828 | 12.78° C | 82% | 1023 hPa | - | - | - | - |
| 1787772228 | 12.78° C | 82% | 1023 hPa | - | - | - | - |
| 1787771626 | 12.78° C | 82% | 1023 hPa | - | - | - | - |
| 1787771029 | 13.89° C | 76% | 1022 hPa | - | - | - | - |
| 1787770429 | 13.89° C | 76% | 1022 hPa | - | - | - | - |
| 1787769828 | 13.89° C | 76% | 1022 hPa | - | - | - | - |
| 1787769229 | 15° C | 72% | 1022 hPa | - | - | - | - |
| 1787768627 | 15° C | 72% | 1022 hPa | - | - | - | - |
| 1787768026 | 15° C | 72% | 1022 hPa | - | - | - | - |
| 1787767429 | 15° C | 72% | 1022 hPa | - | - | - | - |
| 1787766825 | 15° C | 72% | 1022 hPa | - | - | - | - |
| 1787766227 | 15° C | 72% | 1022 hPa | - | - | - | - |
| 1787765628 | 15° C | 72% | 1022 hPa | - | - | - | - |
| 1787765028 | 15° C | 72% | 1022 hPa | - | - | - | - |
| 1787764427 | 15° C | 72% | 1022 hPa | - | - | - | - |
| 1787763828 | 13.89° C | 76% | 1022 hPa | - | - | - | - |
| 1787763229 | 13.89° C | 76% | 1022 hPa | - | - | - | - |
* Rain since midnight (hover to see other rain measurements)
** Current wind speed in m/s (hover to see current wind gust speed)